createdAt,value
2018-09-23T00:01:18.697Z,0.90
2018-09-23T00:03:47.044Z,0.90
2018-09-23T00:06:15.373Z,0.70
2018-09-23T00:08:44.541Z,0.90
2018-09-23T00:11:12.905Z,0.90
2018-09-23T00:13:41.645Z,1.80
2018-09-23T00:16:10.140Z,1.10
2018-09-23T00:18:38.527Z,1.00
2018-09-23T00:21:07.200Z,1.30
2018-09-23T00:23:35.804Z,0.90
2018-09-23T00:26:04.203Z,0.50
2018-09-23T00:28:32.592Z,0.90
2018-09-23T00:31:00.949Z,0.67
2018-09-23T00:33:29.308Z,0.73
2018-09-23T00:35:57.986Z,0.90
2018-09-23T00:38:26.370Z,0.70
2018-09-23T00:40:55.176Z,0.70
2018-09-23T00:43:23.534Z,0.63
2018-09-23T00:45:52.177Z,0.67
2018-09-23T00:48:20.538Z,0.67
2018-09-23T00:50:48.894Z,1.00
2018-09-23T00:53:17.196Z,0.77
2018-09-23T00:55:45.532Z,0.80
2018-09-23T00:58:13.884Z,1.03
2018-09-23T01:00:42.272Z,0.90
2018-09-23T01:03:10.639Z,0.90
2018-09-23T01:05:39.060Z,1.10
2018-09-23T01:08:07.470Z,0.70
2018-09-23T01:10:35.845Z,1.07
2018-09-23T01:13:04.173Z,1.00
2018-09-23T01:15:32.520Z,0.97
2018-09-23T01:18:00.840Z,1.00
2018-09-23T01:20:29.166Z,0.77
2018-09-23T01:22:57.584Z,0.60
2018-09-23T01:25:26.384Z,1.00
2018-09-23T01:27:54.976Z,0.70
2018-09-23T01:30:23.316Z,1.40
2018-09-23T01:32:51.902Z,0.97
2018-09-23T01:35:20.288Z,0.80
2018-09-23T01:37:48.640Z,0.90
2018-09-23T01:40:17.006Z,0.93
2018-09-23T01:42:45.353Z,0.70
2018-09-23T01:45:13.675Z,1.00
2018-09-23T01:47:42.025Z,0.90
2018-09-23T01:50:10.388Z,0.70
2018-09-23T01:52:38.720Z,0.73
2018-09-23T01:55:07.145Z,0.73
2018-09-23T01:57:35.447Z,1.00
2018-09-23T02:00:03.975Z,0.80
2018-09-23T02:02:32.379Z,0.70
2018-09-23T02:05:00.743Z,1.47
2018-09-23T02:07:29.115Z,1.00
2018-09-23T02:09:57.503Z,0.80
2018-09-23T02:12:25.882Z,0.70
2018-09-23T02:14:54.244Z,0.90
2018-09-23T02:17:23.111Z,0.73
2018-09-23T02:19:51.471Z,1.47
2018-09-23T02:22:19.850Z,0.90
2018-09-23T02:24:48.231Z,0.97
2018-09-23T02:27:16.590Z,0.90
2018-09-23T02:29:44.927Z,1.23
2018-09-23T02:32:13.268Z,1.00
2018-09-23T02:34:41.709Z,1.00
2018-09-23T02:37:10.019Z,1.20
2018-09-23T02:39:38.372Z,1.00
2018-09-23T02:42:06.848Z,0.90
2018-09-23T02:44:35.205Z,1.10
2018-09-23T02:47:03.603Z,1.00
2018-09-23T02:49:31.952Z,0.80
2018-09-23T02:52:00.303Z,1.77
2018-09-23T02:54:28.676Z,1.17
2018-09-23T02:56:57.036Z,0.80
2018-09-23T02:59:25.491Z,1.10
2018-09-23T03:01:53.851Z,0.73
2018-09-23T03:04:22.181Z,1.47
2018-09-23T03:06:50.801Z,1.27
2018-09-23T03:09:19.168Z,1.07
2018-09-23T03:11:47.524Z,0.73
2018-09-23T03:14:15.961Z,0.83
2018-09-23T03:16:44.367Z,0.80
2018-09-23T03:19:12.710Z,1.03
2018-09-23T03:21:41.080Z,0.77
2018-09-23T03:24:09.479Z,1.07
2018-09-23T03:26:37.896Z,1.00
2018-09-23T03:29:06.255Z,0.87
2018-09-23T03:31:34.590Z,1.07
2018-09-23T03:34:02.963Z,1.03
2018-09-23T03:36:31.321Z,0.83
2018-09-23T03:38:59.646Z,0.67
2018-09-23T03:41:28.180Z,1.00
2018-09-23T03:43:56.587Z,1.00
2018-09-23T03:46:24.968Z,1.00
2018-09-23T03:48:53.317Z,0.80
2018-09-23T03:51:21.867Z,1.10
2018-09-23T03:53:50.217Z,1.20
2018-09-23T03:56:18.590Z,1.30
2018-09-23T03:58:47.279Z,0.97
2018-09-23T04:01:15.649Z,1.03
2018-09-23T04:03:44.007Z,1.00
2018-09-23T04:06:12.391Z,0.93
2018-09-23T04:08:40.874Z,0.97
2018-09-23T04:11:09.223Z,0.90
2018-09-23T04:13:37.575Z,0.93
2018-09-23T04:16:05.908Z,1.17
2018-09-23T04:18:34.280Z,1.00
2018-09-23T04:21:02.864Z,0.90
2018-09-23T04:23:31.235Z,0.80
2018-09-23T04:25:59.591Z,0.67
2018-09-23T04:28:27.972Z,0.90
2018-09-23T04:30:56.333Z,0.97
2018-09-23T04:33:24.699Z,0.87
2018-09-23T04:35:53.040Z,1.13
2018-09-23T04:38:21.399Z,0.73
2018-09-23T04:40:49.733Z,1.00
2018-09-23T04:43:18.131Z,1.10
2018-09-23T04:45:46.504Z,0.70
2018-09-23T04:48:14.887Z,1.10
2018-09-23T04:50:43.218Z,0.80
2018-09-23T04:53:11.521Z,0.90
2018-09-23T04:55:39.936Z,1.00
2018-09-23T04:58:08.249Z,1.00
2018-09-23T05:00:36.582Z,1.10
2018-09-23T05:03:04.944Z,1.10
2018-09-23T05:05:33.292Z,1.00
2018-09-23T05:08:01.680Z,1.10
2018-09-23T05:10:30.072Z,0.87
2018-09-23T05:12:58.686Z,1.37
2018-09-23T05:15:27.060Z,1.00
2018-09-23T05:17:55.436Z,1.00
2018-09-23T05:20:23.770Z,0.80
2018-09-23T05:22:52.146Z,1.07
2018-09-23T05:25:20.506Z,0.77
2018-09-23T05:27:48.878Z,1.00
2018-09-23T05:30:17.621Z,0.80
2018-09-23T05:32:45.991Z,0.90
2018-09-23T05:35:14.415Z,0.90
2018-09-23T05:37:42.710Z,0.93
2018-09-23T05:40:11.053Z,0.90
2018-09-23T05:42:39.464Z,1.00
2018-09-23T05:45:08.434Z,1.10
2018-09-23T05:47:36.876Z,0.80
2018-09-23T05:50:05.955Z,1.00
2018-09-23T05:52:34.327Z,1.60
2018-09-23T05:55:02.699Z,1.00
2018-09-23T05:57:31.047Z,0.90
2018-09-23T06:00:00.095Z,0.80
2018-09-23T06:02:28.715Z,0.87
2018-09-23T06:04:57.132Z,6.23
2018-09-23T06:07:25.477Z,1.33
2018-09-23T06:09:53.879Z,0.90
2018-09-23T06:12:22.206Z,1.23
2018-09-23T06:14:50.575Z,1.20
2018-09-23T06:17:19.063Z,1.10
2018-09-23T06:19:47.433Z,1.00
2018-09-23T06:22:15.833Z,1.20
2018-09-23T06:24:44.684Z,1.20
2018-09-23T06:27:13.060Z,1.27
2018-09-23T06:29:41.499Z,0.97
2018-09-23T06:32:09.915Z,1.03
2018-09-23T06:34:38.336Z,1.07
2018-09-23T06:37:07.078Z,1.10
2018-09-23T06:39:35.375Z,1.00
2018-09-23T06:42:03.721Z,1.20
2018-09-23T06:44:32.072Z,0.93
2018-09-23T06:47:00.832Z,0.67
2018-09-23T06:49:29.623Z,1.20
2018-09-23T06:51:58.023Z,0.80
2018-09-23T06:54:26.442Z,1.10
2018-09-23T06:56:54.873Z,1.00
2018-09-23T06:59:23.174Z,1.13
2018-09-23T07:01:51.634Z,1.00
2018-09-23T07:04:20.059Z,1.00
2018-09-23T07:06:48.636Z,0.80
2018-09-23T07:09:17.268Z,1.07
2018-09-23T07:11:45.628Z,0.90
2018-09-23T07:14:13.996Z,0.93
2018-09-23T07:16:42.339Z,0.67
2018-09-23T07:19:10.743Z,0.70
2018-09-23T07:21:39.108Z,1.47
2018-09-23T07:24:07.653Z,0.67
2018-09-23T07:26:35.834Z,0.53
2018-09-23T07:29:04.278Z,0.50
2018-09-23T07:31:32.640Z,0.67
2018-09-23T07:34:01.036Z,1.77
2018-09-23T07:36:29.482Z,0.80
2018-09-23T07:38:57.833Z,0.90
2018-09-23T07:41:26.233Z,1.00
2018-09-23T07:43:54.576Z,1.20
2018-09-23T07:46:22.991Z,1.00
2018-09-23T07:48:51.396Z,1.00
2018-09-23T07:51:19.749Z,1.30
2018-09-23T07:53:48.242Z,1.33
2018-09-23T07:56:16.598Z,1.33
2018-09-23T07:58:45.105Z,1.40
2018-09-23T08:01:13.479Z,1.97
2018-09-23T08:03:41.861Z,1.47
2018-09-23T08:06:10.245Z,1.23
2018-09-23T08:08:38.614Z,1.60
2018-09-23T08:11:07.311Z,1.30
2018-09-23T08:13:35.883Z,3.60
2018-09-23T08:16:04.115Z,1.30
2018-09-23T08:18:32.889Z,1.20
2018-09-23T08:21:01.392Z,1.53
2018-09-23T08:23:29.748Z,1.50
2018-09-23T08:25:58.169Z,1.70
2018-09-23T08:28:26.600Z,1.43
2018-09-23T08:30:55.017Z,1.20
2018-09-23T08:33:23.366Z,1.40
2018-09-23T08:35:51.772Z,1.43
2018-09-23T08:38:20.129Z,1.40
2018-09-23T08:40:48.516Z,1.27
2018-09-23T08:43:17.013Z,1.30
2018-09-23T08:45:45.790Z,1.03
2018-09-23T08:48:14.815Z,1.93
2018-09-23T08:50:43.160Z,1.40
2018-09-23T08:53:11.530Z,1.60
2018-09-23T08:55:39.988Z,1.30
2018-09-23T08:58:08.421Z,0.90
2018-09-23T09:00:36.763Z,1.10
2018-09-23T09:03:05.164Z,1.23
2018-09-23T09:05:33.509Z,1.30
2018-09-23T09:08:02.299Z,1.90
2018-09-23T09:10:30.860Z,1.67
2018-09-23T09:12:59.204Z,1.30
2018-09-23T09:15:27.587Z,3.73
2018-09-23T09:17:56.251Z,1.40
2018-09-23T09:20:24.615Z,1.87
2018-09-23T09:22:53.225Z,1.30
2018-09-23T09:25:21.581Z,2.40
2018-09-23T09:27:50.571Z,2.07
2018-09-23T09:30:18.961Z,2.30
2018-09-23T09:32:47.337Z,2.67
2018-09-23T09:35:15.703Z,2.50
2018-09-23T09:37:44.171Z,2.90
2018-09-23T09:40:12.572Z,2.70
2018-09-23T09:42:40.923Z,2.90
2018-09-23T09:45:09.773Z,2.60
2018-09-23T09:47:38.119Z,2.70
2018-09-23T09:50:06.874Z,3.43
2018-09-23T09:52:35.254Z,2.80
2018-09-23T09:55:03.730Z,2.47
2018-09-23T09:57:32.109Z,2.57
2018-09-23T10:00:00.528Z,2.40
2018-09-23T10:02:28.986Z,2.87
2018-09-23T10:04:57.355Z,2.70
2018-09-23T10:07:25.715Z,2.57
2018-09-23T10:09:54.179Z,9.90
2018-09-23T10:12:22.541Z,3.20
2018-09-23T10:14:50.919Z,2.90
2018-09-23T10:17:19.304Z,2.57
2018-09-23T10:19:47.689Z,3.03
2018-09-23T10:22:16.068Z,2.50
2018-09-23T10:24:44.431Z,2.60
2018-09-23T10:27:12.897Z,2.30
2018-09-23T10:29:41.291Z,2.43
2018-09-23T10:32:09.653Z,2.20
2018-09-23T10:34:38.038Z,2.03
2018-09-23T10:37:06.463Z,2.17
2018-09-23T10:39:34.812Z,2.50
2018-09-23T10:42:03.136Z,2.20
2018-09-23T10:44:31.500Z,2.23
2018-09-23T10:46:59.969Z,2.27
2018-09-23T10:49:28.380Z,2.40
2018-09-23T10:51:56.728Z,2.33
2018-09-23T10:54:25.092Z,2.33
2018-09-23T10:56:53.457Z,2.13
2018-09-23T10:59:21.977Z,2.60
2018-09-23T11:01:50.357Z,17.67
2018-09-23T11:04:18.803Z,2.67
2018-09-23T11:06:47.204Z,2.20
2018-09-23T11:09:15.566Z,1.80
2018-09-23T11:11:43.960Z,1.73
2018-09-23T11:14:12.360Z,1.57
2018-09-23T11:16:40.766Z,1.60
2018-09-23T11:19:09.187Z,1.90
2018-09-23T11:21:37.556Z,1.50
2018-09-23T11:24:06.256Z,1.70
2018-09-23T11:26:35.034Z,2.10
2018-09-23T11:29:03.504Z,1.70
2018-09-23T11:31:31.921Z,1.70
2018-09-23T11:34:00.306Z,2.03
2018-09-23T11:36:28.678Z,1.90
2018-09-23T11:38:57.137Z,2.10
2018-09-23T11:41:25.521Z,2.23
2018-09-23T11:43:53.904Z,2.07
2018-09-23T11:46:22.793Z,2.10
2018-09-23T11:48:51.224Z,2.10
2018-09-23T11:51:19.566Z,1.77
2018-09-23T11:53:48.236Z,1.70
2018-09-23T11:56:16.613Z,2.07
2018-09-23T11:58:45.207Z,1.70
2018-09-23T12:01:13.575Z,2.03
2018-09-23T12:03:41.953Z,2.00
2018-09-23T12:06:10.425Z,1.50
2018-09-23T12:08:38.830Z,2.10
2018-09-23T12:11:07.165Z,1.83
2018-09-23T12:13:35.554Z,2.00
2018-09-23T12:16:03.961Z,2.10
2018-09-23T12:18:32.338Z,2.67
2018-09-23T12:21:00.720Z,8.40
2018-09-23T12:23:29.148Z,1.87
2018-09-23T12:25:57.949Z,2.43
2018-09-23T12:28:26.315Z,2.13
2018-09-23T12:30:54.704Z,2.20
2018-09-23T12:33:23.561Z,1.80
2018-09-23T12:35:51.994Z,2.03
2018-09-23T12:38:20.396Z,2.27
2018-09-23T12:40:48.760Z,2.50
2018-09-23T12:43:17.156Z,2.50
2018-09-23T12:45:45.551Z,2.50
2018-09-23T12:48:13.952Z,2.60
2018-09-23T12:50:42.422Z,2.73
2018-09-23T12:53:10.837Z,1.97
2018-09-23T12:55:39.222Z,2.47
2018-09-23T12:58:07.729Z,2.47
2018-09-23T13:00:36.072Z,2.60
2018-09-23T13:03:04.464Z,2.80
2018-09-23T13:05:32.876Z,2.80
2018-09-23T13:08:01.230Z,2.90
2018-09-23T13:10:29.622Z,2.27
2018-09-23T13:12:57.989Z,2.60
2018-09-23T13:15:26.404Z,2.67
2018-09-23T13:17:55.155Z,2.90
2018-09-23T13:20:23.556Z,2.77
2018-09-23T13:22:51.948Z,2.53
2018-09-23T13:25:20.451Z,3.17
2018-09-23T13:27:48.804Z,3.27
2018-09-23T13:30:17.488Z,2.80
2018-09-23T13:32:46.467Z,2.70
2018-09-23T13:35:14.875Z,3.83
2018-09-23T13:37:43.263Z,4.20
2018-09-23T13:40:11.607Z,4.67
2018-09-23T13:42:40.045Z,4.93
2018-09-23T13:45:08.694Z,8.97
2018-09-23T13:47:37.188Z,5.17
2018-09-23T13:50:05.723Z,4.50
2018-09-23T13:52:34.561Z,4.70
2018-09-23T13:55:02.942Z,4.60
2018-09-23T13:57:31.343Z,5.27
2018-09-23T13:59:59.820Z,5.23
2018-09-23T14:02:28.201Z,4.40
2018-09-23T14:04:56.589Z,3.87
2018-09-23T14:07:25.060Z,3.83
2018-09-23T14:09:53.462Z,3.93
2018-09-23T14:12:21.840Z,3.77
2018-09-23T14:14:50.279Z,3.93
2018-09-23T14:17:19.197Z,3.80
2018-09-23T14:19:49.030Z,3.90
2018-09-23T14:22:17.429Z,3.50
2018-09-23T14:24:45.821Z,3.37
2018-09-23T14:27:14.205Z,2.63
2018-09-23T14:29:42.578Z,2.80
2018-09-23T14:32:11.027Z,2.90
2018-09-23T14:34:39.559Z,2.70
2018-09-23T14:37:08.117Z,2.83
2018-09-23T14:39:36.503Z,2.83
2018-09-23T14:42:05.027Z,2.80
2018-09-23T14:44:33.335Z,2.80
2018-09-23T14:47:01.762Z,2.23
2018-09-23T14:49:30.125Z,2.47
2018-09-23T14:51:58.502Z,2.77
2018-09-23T14:54:26.987Z,2.60
2018-09-23T14:56:55.526Z,2.47
2018-09-23T14:59:24.036Z,2.80
2018-09-23T15:01:52.465Z,3.57
2018-09-23T15:04:20.844Z,3.20
2018-09-23T15:06:49.228Z,3.43
2018-09-23T15:09:17.589Z,3.27
2018-09-23T15:11:45.986Z,3.23
2018-09-23T15:14:14.555Z,2.70
2018-09-23T15:16:42.860Z,2.50
2018-09-23T15:19:11.241Z,2.60
2018-09-23T15:21:39.640Z,2.93
2018-09-23T15:24:07.923Z,2.20
2018-09-23T15:26:36.428Z,2.33
2018-09-23T15:29:04.864Z,2.30
2018-09-23T15:31:33.262Z,2.30
2018-09-23T15:34:01.659Z,1.97
2018-09-23T15:36:30.082Z,2.63
2018-09-23T15:38:58.596Z,2.60
2018-09-23T15:41:26.998Z,2.67
2018-09-23T15:43:55.380Z,2.27
2018-09-23T15:46:23.776Z,2.73
2018-09-23T15:48:52.551Z,2.40
2018-09-23T15:51:20.936Z,2.63
2018-09-23T15:53:49.309Z,2.40
2018-09-23T15:56:17.667Z,2.40
2018-09-23T15:58:46.149Z,2.33
2018-09-23T16:01:14.531Z,2.83
2018-09-23T16:03:42.877Z,2.97
2018-09-23T16:06:11.270Z,2.40
2018-09-23T16:08:39.652Z,2.20
2018-09-23T16:11:08.061Z,2.20
2018-09-23T16:13:38.699Z,2.03
2018-09-23T16:16:07.977Z,1.70
2018-09-23T16:18:36.469Z,1.70
2018-09-23T16:21:05.098Z,1.60
2018-09-23T16:23:33.468Z,1.60
2018-09-23T16:26:02.021Z,1.33
2018-09-23T16:28:30.748Z,1.20
2018-09-23T16:30:59.229Z,1.40
2018-09-23T16:33:27.755Z,1.30
2018-09-23T16:35:56.672Z,1.20
2018-09-23T16:38:25.240Z,1.10
2018-09-23T16:40:53.636Z,0.90
2018-09-23T16:43:22.085Z,1.40
2018-09-23T16:45:50.531Z,1.17
2018-09-23T16:48:19.009Z,1.17
2018-09-23T16:50:47.386Z,1.20
2018-09-23T16:53:16.049Z,1.20
2018-09-23T16:55:44.454Z,0.90
2018-09-23T16:58:12.859Z,1.10
2018-09-23T17:00:41.344Z,0.90
2018-09-23T17:03:09.683Z,1.10
2018-09-23T17:05:38.936Z,1.10
2018-09-23T17:08:07.293Z,1.17
2018-09-23T17:10:35.662Z,1.50
2018-09-23T17:13:04.092Z,1.30
2018-09-23T17:15:32.517Z,1.33
2018-09-23T17:18:01.055Z,1.60
2018-09-23T17:20:29.516Z,1.60
2018-09-23T17:22:58.392Z,1.37
2018-09-23T17:25:27.205Z,1.67
2018-09-23T17:27:56.383Z,1.80
2018-09-23T17:30:26.185Z,2.07
2018-09-23T17:32:54.653Z,2.30
2018-09-23T17:35:23.622Z,2.23
2018-09-23T17:37:52.106Z,2.60
2018-09-23T17:40:20.531Z,2.53
2018-09-23T17:42:48.934Z,2.20
2018-09-23T17:45:17.350Z,2.40
2018-09-23T17:47:45.808Z,2.90
2018-09-23T17:50:14.571Z,3.50
2018-09-23T17:52:43.054Z,4.27
2018-09-23T17:55:11.503Z,4.03
2018-09-23T17:57:40.091Z,5.27
2018-09-23T18:00:08.663Z,4.73
2018-09-23T18:02:37.087Z,4.53
2018-09-23T18:05:05.475Z,5.10
2018-09-23T18:07:35.015Z,4.40
2018-09-23T18:10:03.472Z,3.87
2018-09-23T18:12:31.857Z,3.20
2018-09-23T18:15:00.348Z,3.57
2018-09-23T18:17:28.679Z,2.40
2018-09-23T18:19:57.048Z,1.80
2018-09-23T18:22:25.380Z,1.40
2018-09-23T18:24:53.894Z,0.70
2018-09-23T18:27:23.068Z,0.70
2018-09-23T18:29:51.519Z,0.60
2018-09-23T18:32:20.358Z,0.90
2018-09-23T18:34:48.928Z,0.80
2018-09-23T18:37:17.398Z,1.03
2018-09-23T18:39:45.853Z,1.30
2018-09-23T18:42:14.221Z,2.00
2018-09-23T18:44:42.738Z,2.20
2018-09-23T18:47:11.127Z,2.10
2018-09-23T18:49:39.499Z,2.70
2018-09-23T18:52:08.204Z,3.00
2018-09-23T18:54:42.409Z,2.87
2018-09-23T18:57:10.802Z,3.03
2018-09-23T18:59:39.259Z,2.70
2018-09-23T19:02:07.959Z,3.03
2018-09-23T19:04:36.320Z,3.50
2018-09-23T19:07:05.056Z,3.83
2018-09-23T19:09:33.447Z,2.93
2018-09-23T19:12:01.796Z,2.80
2018-09-23T19:14:30.184Z,2.30
2018-09-23T19:16:58.642Z,1.87
2018-09-23T19:19:32.310Z,1.60
2018-09-23T19:22:00.731Z,1.60
2018-09-23T19:24:29.114Z,1.30
2018-09-23T19:26:57.632Z,1.30
2018-09-23T19:29:25.964Z,1.13
2018-09-23T19:31:54.308Z,1.17
2018-09-23T19:34:22.708Z,1.17
2018-09-23T19:36:51.342Z,1.53
2018-09-23T19:39:19.724Z,1.57
2018-09-23T19:41:48.108Z,1.30
2018-09-23T19:44:16.836Z,1.30
2018-09-23T19:46:45.196Z,1.33
2018-09-23T19:49:13.652Z,1.30
2018-09-23T19:51:42.003Z,1.30
2018-09-23T19:54:10.357Z,1.50
2018-09-23T19:56:38.785Z,1.13
2018-09-23T19:59:07.244Z,1.03
2018-09-23T20:01:35.717Z,1.80
2018-09-23T20:04:04.085Z,1.27
2018-09-23T20:06:32.585Z,1.00
2018-09-23T20:09:01.120Z,1.40
2018-09-23T20:11:29.491Z,1.00
2018-09-23T20:13:57.825Z,1.10
2018-09-23T20:16:26.197Z,1.00
2018-09-23T20:18:54.541Z,0.80
2018-09-23T20:21:22.897Z,1.00
2018-09-23T20:23:51.275Z,1.20
2018-09-23T20:26:19.777Z,1.10
2018-09-23T20:28:48.205Z,1.10
2018-09-23T20:31:16.616Z,1.00
2018-09-23T20:33:45.217Z,1.30
2018-09-23T20:36:13.582Z,1.20
2018-09-23T20:38:41.982Z,1.10
2018-09-23T20:41:19.685Z,1.13
2018-09-23T20:43:48.455Z,1.30
2018-09-23T20:46:17.137Z,1.60
2018-09-23T20:48:45.482Z,1.30
2018-09-23T20:51:13.921Z,1.23
2018-09-23T20:53:42.302Z,1.40
2018-09-23T20:56:10.687Z,1.37
2018-09-23T20:58:40.006Z,1.27
2018-09-23T21:01:08.368Z,1.40
2018-09-23T21:03:36.769Z,1.10
2018-09-23T21:06:05.144Z,1.40
2018-09-23T21:08:33.454Z,1.17
2018-09-23T21:11:01.804Z,1.70
2018-09-23T21:13:30.269Z,1.50
2018-09-23T21:15:58.592Z,1.70
2018-09-23T21:18:27.456Z,1.73
2018-09-23T21:20:55.877Z,2.40
2018-09-23T21:23:24.262Z,2.13
2018-09-23T21:25:53.368Z,2.70
2018-09-23T21:28:21.766Z,2.87
2018-09-23T21:30:50.219Z,3.17
2018-09-23T21:33:18.991Z,3.23
2018-09-23T21:35:47.405Z,2.93
2018-09-23T21:38:15.784Z,3.07
2018-09-23T21:40:44.231Z,2.70
2018-09-23T21:43:12.598Z,2.70
2018-09-23T21:45:40.946Z,2.70
2018-09-23T21:48:09.760Z,2.50
2018-09-23T21:50:38.098Z,2.87
2018-09-23T21:53:06.430Z,2.43
2018-09-23T21:55:34.776Z,2.80
2018-09-23T21:58:03.198Z,2.20
2018-09-23T22:00:36.802Z,2.73
2018-09-23T22:03:05.641Z,2.17
2018-09-23T22:05:34.034Z,2.73
2018-09-23T22:08:02.348Z,3.10
2018-09-23T22:10:31.408Z,4.10
2018-09-23T22:12:59.769Z,3.57
2018-09-23T22:15:28.131Z,4.20
2018-09-23T22:17:57.174Z,3.53
2018-09-23T22:20:26.291Z,3.47
2018-09-23T22:22:55.303Z,3.60
2018-09-23T22:25:23.731Z,3.70
2018-09-23T22:27:52.777Z,2.80
2018-09-23T22:30:21.655Z,2.70
2018-09-23T22:32:50.064Z,3.20
2018-09-23T22:35:18.440Z,3.33
2018-09-23T22:37:46.861Z,3.20
2018-09-23T22:40:15.237Z,3.33
2018-09-23T22:42:43.559Z,3.40
2018-09-23T22:45:12.325Z,3.30
2018-09-23T22:47:40.760Z,3.13
2018-09-23T22:50:09.143Z,3.40
2018-09-23T22:52:37.484Z,3.40
2018-09-23T22:55:05.875Z,3.43
2018-09-23T22:57:34.220Z,3.43
2018-09-23T23:00:02.625Z,3.97
2018-09-23T23:02:31.092Z,4.00
2018-09-23T23:04:59.479Z,4.00
2018-09-23T23:07:28.417Z,3.70
2018-09-23T23:09:56.820Z,3.37
2018-09-23T23:12:25.150Z,3.13
2018-09-23T23:14:53.571Z,3.80
2018-09-23T23:17:21.968Z,3.30
2018-09-23T23:19:50.366Z,3.77
2018-09-23T23:22:18.732Z,3.10
2018-09-23T23:24:47.058Z,2.87
2018-09-23T23:27:15.376Z,2.73
2018-09-23T23:29:43.714Z,2.17
2018-09-23T23:32:12.073Z,3.13
2018-09-23T23:34:40.404Z,2.10
2018-09-23T23:37:08.780Z,2.47
2018-09-23T23:39:37.140Z,2.27
2018-09-23T23:42:05.485Z,1.87
2018-09-23T23:44:33.840Z,1.80
2018-09-23T23:47:02.473Z,2.07
2018-09-23T23:49:30.828Z,1.87
2018-09-23T23:51:59.172Z,2.07
2018-09-23T23:54:27.580Z,2.47
2018-09-23T23:56:55.882Z,1.90
2018-09-23T23:59:24.260Z,2.10
